Time;durP1;ratioP1;P1;durP2;ratioP2;P2;SDS_P1;SDS_P2;PMS_P1;PMS_P2;Temp;Humidity;BMP_temperature;BMP_pressure;BME280_temperature;BME280_humidity;BME280_pressure;Samples;Min_cycle;Max_cycle;Signal;HPM_P1;HPM_P2
2022/12/04 00:02:41;;;;;;;;;;;;;;;25.19;42.22;93566.50;4986369;28;9510;-63
2022/12/04 00:05:20;;;;;;;;;;;;;;;25.20;42.22;93570.00;4933683;28;9061;-63
2022/12/04 00:07:58;;;;;;;;;;;;;;;25.18;42.38;93572.56;4949197;28;9938;-63
2022/12/04 00:10:34;;;;;;;;;;;;;;;25.18;42.72;93558.78;4925836;29;7120;-62
2022/12/04 00:13:00;;;;;;;;;;;;;;;25.16;42.71;93564.09;4932315;28;7130;-62
2022/12/04 00:15:44;;;;;;;;;;;;;;;25.18;42.84;93569.81;4938143;28;7024;-63
2022/12/04 00:18:14;;;;;;;;;;;;;;;25.17;41.99;93554.53;4944785;28;7035;-63
2022/12/04 00:20:57;;;;;;;;;;;;;;;25.16;42.07;93558.59;4931337;29;7076;-63
2022/12/04 00:23:34;;;;;;;;;;;;;;;25.15;42.13;93551.59;4935972;28;7252;-63
2022/12/04 00:26:18;;;;;;;;;;;;;;;25.14;42.54;93559.09;4936754;28;9053;-63
2022/12/04 00:28:44;;;;;;;;;;;;;;;25.15;42.92;93565.34;4936041;28;8542;-62
2022/12/04 00:31:14;;;;;;;;;;;;;;;25.13;42.96;93563.13;4952588;28;8859;-61
2022/12/04 00:33:49;;;;;;;;;;;;;;;25.14;42.92;93561.13;4944820;28;8882;-62
2022/12/04 00:36:21;;;;;;;;;;;;;;;25.13;42.78;93560.38;4930083;28;7510;-61
2022/12/04 00:38:47;;;;;;;;;;;;;;;25.13;42.60;93554.88;4932261;29;7153;-62
2022/12/04 00:41:18;;;;;;;;;;;;;;;25.13;42.71;93560.38;4951742;28;9587;-62
2022/12/04 00:43:49;;;;;;;;;;;;;;;25.15;42.89;93562.59;4989828;28;8204;-62
2022/12/04 00:46:16;;;;;;;;;;;;;;;25.15;42.82;93557.09;4979689;28;7102;-62
2022/12/04 00:48:45;;;;;;;;;;;;;;;25.14;42.44;93561.84;4990207;28;7217;-63
2022/12/04 00:51:15;;;;;;;;;;;;;;;25.15;42.30;93562.59;4986417;28;7811;-63
2022/12/04 00:53:44;;;;;;;;;;;;;;;25.14;42.50;93559.09;5002740;28;9818;-62
2022/12/04 00:56:21;;;;;;;;;;;;;;;25.14;43.14;93558.38;4987611;28;7572;-62
2022/12/04 00:58:55;;;;;;;;;;;;;;;25.14;42.99;93561.13;4993077;28;7051;-62
2022/12/04 01:01:24;;;;;;;;;;;;;;;25.15;42.42;93546.06;4985885;28;7060;-63
2022/12/04 01:04:00;;;;;;;;;;;;;;;25.18;42.51;93550.53;4990987;28;7132;-62
2022/12/04 01:06:32;;;;;;;;;;;;;;;25.18;42.74;93559.53;4978873;28;7321;-62
2022/12/04 01:09:08;;;;;;;;;;;;;;;25.19;42.34;93563.00;5002717;28;7417;-61
2022/12/04 01:11:37;;;;;;;;;;;;;;;25.19;42.22;93549.25;4981908;28;7341;-63
2022/12/04 01:14:18;;;;;;;;;;;;;;;25.18;42.60;93556.03;4993583;28;8995;-63
2022/12/04 01:16:52;;;;;;;;;;;;;;;25.19;42.68;93557.50;4982923;28;9217;-63
2022/12/04 01:19:23;;;;;;;;;;;;;;;25.19;42.94;93557.50;5001612;28;7276;-63
2022/12/04 01:21:52;;;;;;;;;;;;;;;25.19;42.67;93549.25;4991964;28;7243;-62
2022/12/04 01:24:18;;;;;;;;;;;;;;;25.20;42.96;93556.25;4990395;28;7006;-62
2022/12/04 01:26:59;;;;;;;;;;;;;;;25.19;43.08;93546.50;4987835;28;7424;-62
2022/12/04 01:29:43;;;;;;;;;;;;;;;25.19;43.07;93552.00;4986680;28;7051;-63
2022/12/04 01:32:18;;;;;;;;;;;;;;;25.19;42.43;93544.50;4982113;28;8789;-62
2022/12/04 01:34:55;;;;;;;;;;;;;;;25.19;43.08;93544.50;4997469;28;7107;-62
2022/12/04 01:37:32;;;;;;;;;;;;;;;25.19;42.72;93549.25;4983204;28;9154;-62
2022/12/04 01:40:18;;;;;;;;;;;;;;;25.20;42.59;93550.75;4974873;28;7057;-63
2022/12/04 01:43:19;;;;;;;;;;;;;;;25.21;43.17;93557.72;4986671;28;7255;-63
2022/12/04 01:45:49;;;;;;;;;;;;;;;25.21;42.33;93541.22;4935610;28;7213;-62
2022/12/04 01:48:24;;;;;;;;;;;;;;;25.20;42.97;93542.50;4931303;28;7693;-62
2022/12/04 01:50:57;;;;;;;;;;;;;;;25.20;42.47;93548.75;4930026;28;7273;-63
2022/12/04 01:53:24;;;;;;;;;;;;;;;25.21;42.15;93543.97;4933598;29;9721;-62
2022/12/04 01:56:02;;;;;;;;;;;;;;;25.19;42.55;93541.75;4936530;28;7542;-62
2022/12/04 01:58:34;;;;;;;;;;;;;;;25.21;42.05;93544.72;4931827;29;7287;-61
2022/12/04 02:01:09;;;;;;;;;;;;;;;25.21;42.41;93541.22;4940999;28;7425;-63
2022/12/04 02:03:39;;;;;;;;;;;;;;;25.21;42.62;93541.22;4949030;28;8728;-62
2022/12/04 02:06:07;;;;;;;;;;;;;;;25.19;42.78;93538.25;4937459;28;8240;-63
2022/12/04 02:08:42;;;;;;;;;;;;;;;25.22;42.48;93539.94;4935908;28;7043;-62
2022/12/04 02:11:50;;;;;;;;;;;;;;;25.23;42.94;93538.66;4929030;28;6986;-62
2022/12/04 02:14:53;;;;;;;;;;;;;;;25.23;43.03;93527.66;4879352;29;7552;-62
2022/12/04 02:18:03;;;;;;;;;;;;;;;25.22;43.06;93535.19;4872363;29;7126;-62
2022/12/04 02:21:13;;;;;;;;;;;;;;;25.22;42.09;93535.19;4917035;29;7163;-63
2022/12/04 02:24:13;;;;;;;;;;;;;;;25.22;42.23;93531.69;4911412;29;8245;-62
2022/12/04 02:27:04;;;;;;;;;;;;;;;25.21;42.41;93535.72;4914004;29;7281;-62
2022/12/04 02:29:53;;;;;;;;;;;;;;;25.20;42.22;93546.00;4907222;29;7379;-62
2022/12/04 02:32:42;;;;;;;;;;;;;;;25.22;42.78;93537.19;4928892;29;7054;-62
2022/12/04 02:35:45;;;;;;;;;;;;;;;25.22;43.12;93540.69;4915510;29;7118;-63
2022/12/04 02:38:39;;;;;;;;;;;;;;;25.22;42.41;93542.72;4848635;29;9362;-62
2022/12/04 02:41:21;;;;;;;;;;;;;;;25.22;42.38;93537.19;4854665;29;10159;-63
2022/12/04 02:44:09;;;;;;;;;;;;;;;25.22;42.32;93545.47;4835229;29;7170;-62
2022/12/04 02:46:48;;;;;;;;;;;;;;;25.21;43.06;93554.97;4851629;29;9062;-63
2022/12/04 02:49:20;;;;;;;;;;;;;;;25.21;42.62;93549.47;4854079;29;9422;-62
2022/12/04 02:51:49;;;;;;;;;;;;;;;25.21;42.55;93549.47;4880186;29;7214;-63
2022/12/04 02:54:27;;;;;;;;;;;;;;;25.22;42.21;93545.47;4889874;29;7290;-63
2022/12/04 02:57:13;;;;;;;;;;;;;;;25.23;42.31;93546.91;4891849;29;7746;-62
2022/12/04 02:59:51;;;;;;;;;;;;;;;25.22;42.80;93545.47;4893730;29;7021;-62
2022/12/04 03:02:33;;;;;;;;;;;;;;;25.22;42.58;93537.94;4898069;29;6977;-62
2022/12/04 03:05:10;;;;;;;;;;;;;;;25.21;42.94;93532.94;4882626;29;7051;-61
2022/12/04 03:08:00;;;;;;;;;;;;;;;25.20;42.29;93534.97;4903385;29;7163;-62
2022/12/04 03:10:39;;;;;;;;;;;;;;;25.21;42.16;93530.19;4904304;29;7284;-62
2022/12/04 03:13:14;;;;;;;;;;;;;;;25.21;42.17;93535.72;4915842;28;8973;-63
2022/12/04 03:15:57;;;;;;;;;;;;;;;25.21;42.47;93538.47;4982848;28;9000;-63
2022/12/04 03:18:42;;;;;;;;;;;;;;;25.21;42.31;93532.94;4973775;28;9474;-62
2022/12/04 03:21:35;;;;;;;;;;;;;;;25.21;42.92;93530.19;4988875;28;7247;-63
2022/12/04 03:24:25;;;;;;;;;;;;;;;25.22;42.92;93528.94;4975177;28;10690;-63
2022/12/04 03:27:13;;;;;;;;;;;;;;;25.22;42.38;93537.19;4988097;28;7228;-63
2022/12/04 03:30:04;;;;;;;;;;;;;;;25.21;42.01;93527.44;4989298;28;7085;-63
2022/12/04 03:32:54;;;;;;;;;;;;;;;25.22;42.29;93517.94;4981463;28;8483;-63
2022/12/04 03:35:28;;;;;;;;;;;;;;;25.20;42.98;93521.22;5005452;28;7408;-62
2022/12/04 03:38:19;;;;;;;;;;;;;;;25.20;42.92;93525.97;4999628;28;9019;-63
2022/12/04 03:41:03;;;;;;;;;;;;;;;25.21;42.04;93532.94;5004178;28;9413;-63
2022/12/04 03:44:06;;;;;;;;;;;;;;;25.21;41.89;93524.69;4987559;28;7279;-63
2022/12/04 03:47:08;;;;;;;;;;;;;;;25.19;42.46;93530.00;4992654;28;8723;-63
2022/12/04 03:49:42;;;;;;;;;;;;;;;25.19;42.83;93533.50;4931644;29;7278;-63
2022/12/04 03:52:28;;;;;;;;;;;;;;;25.18;42.59;93532.03;4926062;29;7057;-62
2022/12/04 03:55:14;;;;;;;;;;;;;;;25.18;42.76;93536.78;4922147;29;7491;-63
2022/12/04 03:57:58;;;;;;;;;;;;;;;25.19;42.37;93546.50;4918621;29;9444;-63
2022/12/04 04:00:31;;;;;;;;;;;;;;;25.18;42.67;93540.28;4932578;29;7086;-63
2022/12/04 04:03:07;;;;;;;;;;;;;;;25.18;41.99;93534.78;4912872;29;7047;-62
2022/12/04 04:05:39;;;;;;;;;;;;;;;25.18;42.57;93523.78;4934170;29;7203;-63
2022/12/04 04:08:29;;;;;;;;;;;;;;;25.18;42.32;93521.00;4913751;29;7105;-63
2022/12/04 04:11:39;;;;;;;;;;;;;;;25.18;41.92;93512.75;4931119;29;7282;-63
2022/12/04 04:26:53;;;;;;;;;;;;;;;25.17;41.92;93516.78;4945117;28;7628;-62
2022/12/04 04:29:34;;;;;;;;;;;;;;;25.18;42.03;93507.25;4931172;29;7240;-62
2022/12/04 04:32:32;;;;;;;;;;;;;;;25.17;41.96;93514.00;4953191;28;7448;-63
2022/12/04 04:35:34;;;;;;;;;;;;;;;25.18;42.23;93509.25;4935378;28;9092;-62
2022/12/04 04:38:21;;;;;;;;;;;;;;;25.18;41.85;93517.50;4934376;29;7056;-63
2022/12/04 04:41:27;;;;;;;;;;;;;;;25.18;42.26;93523.03;4921302;29;9379;-63
2022/12/04 04:44:10;;;;;;;;;;;;;;;25.17;41.86;93527.78;4901771;29;7069;-63
2022/12/04 04:46:54;;;;;;;;;;;;;;;25.17;42.23;93513.28;4920362;29;8520;-63
2022/12/04 04:49:27;;;;;;;;;;;;;;;25.17;42.40;93516.78;4917889;29;7265;-63
2022/12/04 04:51:54;;;;;;;;;;;;;;;25.17;42.35;93511.25;4919347;29;9015;-62
2022/12/04 04:54:22;;;;;;;;;;;;;;;25.16;42.29;93509.06;4931967;29;7377;-63
2022/12/04 04:57:29;;;;;;;;;;;;;;;25.17;41.67;93516.03;4931801;29;7281;-62
2022/12/04 04:59:58;;;;;;;;;;;;;;;25.15;42.01;93513.06;4877040;29;7153;-63
2022/12/04 05:02:27;;;;;;;;;;;;;;;25.16;41.84;93506.28;4873467;29;7054;-62
2022/12/04 05:05:20;;;;;;;;;;;;;;;25.18;42.56;93512.00;4860875;29;7012;-63
2022/12/04 05:08:35;;;;;;;;;;;;;;;25.17;42.65;93516.03;4869828;29;9376;-63
2022/12/04 05:11:02;;;;;;;;;;;;;;;25.17;41.85;93521.53;4804285;29;8475;-63
2022/12/04 05:13:37;;;;;;;;;;;;;;;25.17;41.86;93525.03;4804395;29;7211;-63
2022/12/04 05:16:19;;;;;;;;;;;;;;;25.17;41.75;93516.78;4789158;29;7369;-63
2022/12/04 05:21:44;;;;;;;;;;;;;;;25.19;41.99;93518.97;4852883;29;9380;-63
2022/12/04 05:24:13;;;;;;;;;;;;;;;25.18;41.79;93512.00;4833488;29;7250;-63
2022/12/04 05:26:39;;;;;;;;;;;;;;;25.20;42.32;93517.72;4832209;29;7486;-63
2022/12/04 05:29:05;;;;;;;;;;;;;;;25.21;42.40;93527.44;4849542;29;7277;-63
2022/12/04 05:31:40;;;;;;;;;;;;;;;25.22;41.71;93528.94;4852761;29;9590;-63
2022/12/04 05:34:09;;;;;;;;;;;;;;;25.21;41.72;93528.19;4852995;29;9434;-62
2022/12/04 05:36:38;;;;;;;;;;;;;;;25.22;41.72;93531.69;4895667;29;7407;-62
2022/12/04 05:39:03;;;;;;;;;;;;;;;25.18;41.98;93529.28;4896870;29;7078;-62
2022/12/04 05:41:41;;;;;;;;;;;;;;;25.19;42.16;93530.75;4898537;29;8755;-62
2022/12/04 05:44:09;;;;;;;;;;;;;;;25.21;42.53;93532.94;4891834;29;7023;-62
2022/12/04 05:46:35;;;;;;;;;;;;;;;25.20;42.24;93529.47;4901348;28;8804;-61
2022/12/04 05:49:01;;;;;;;;;;;;;;;25.21;42.22;93532.94;4982581;28;7209;-62
2022/12/04 05:51:27;;;;;;;;;;;;;;;25.19;41.99;93530.75;4993293;28;9327;-63
2022/12/04 05:53:53;;;;;;;;;;;;;;;25.18;42.50;93528.53;4982055;28;8098;-62
2022/12/04 05:56:20;;;;;;;;;;;;;;;25.19;42.15;93532.75;4988470;28;7031;-62
2022/12/04 05:58:59;;;;;;;;;;;;;;;25.17;41.44;93527.03;4983478;28;9049;-62
2022/12/04 06:01:40;;;;;;;;;;;;;;;25.18;41.63;93529.28;4974741;28;7288;-62
2022/12/04 06:04:07;;;;;;;;;;;;;;;25.18;41.67;93529.28;4992826;28;7224;-63
2022/12/04 06:06:39;;;;;;;;;;;;;;;25.18;41.67;93531.28;4976657;28;7409;-62
2022/12/04 06:09:07;;;;;;;;;;;;;;;25.16;42.19;93536.56;4992461;28;8246;-63
2022/12/04 06:11:56;;;;;;;;;;;;;;;25.16;42.19;93542.06;4989988;28;7009;-63
2022/12/04 06:14:22;;;;;;;;;;;;;;;25.15;42.30;93532.31;4982182;28;7452;-63
2022/12/04 06:16:48;;;;;;;;;;;;;;;25.15;42.08;93544.06;4984829;28;7235;-63
2022/12/04 06:19:23;;;;;;;;;;;;;;;25.16;42.59;93550.31;4990377;28;7227;-62
2022/12/04 06:21:57;;;;;;;;;;;;;;;25.15;41.71;93541.31;4985171;28;9063;-62
2022/12/04 06:24:32;;;;;;;;;;;;;;;25.18;41.77;93554.03;4984761;28;7125;-63
2022/12/04 06:26:59;;;;;;;;;;;;;;;25.17;42.53;93540.78;5002135;28;7923;-62
2022/12/04 06:29:27;;;;;;;;;;;;;;;25.19;42.32;93541.00;4983098;28;7033;-62
2022/12/04 06:32:04;;;;;;;;;;;;;;;25.17;42.42;93538.03;5005878;28;8935;-62
2022/12/04 06:34:32;;;;;;;;;;;;;;;25.23;42.46;93546.91;4989507;28;8624;-62
2022/12/04 06:36:58;;;;;;;;;;;;;;;25.23;42.43;93541.41;4979065;28;9756;-62
2022/12/04 06:39:24;;;;;;;;;;;;;;;25.23;42.31;93546.91;4986050;28;7429;-62
2022/12/04 06:41:52;;;;;;;;;;;;;;;25.23;42.31;93549.69;4992529;28;7242;-62
2022/12/04 06:44:25;;;;;;;;;;;;;;;25.17;42.40;93544.28;4980410;28;9050;-63
2022/12/04 06:47:00;;;;;;;;;;;;;;;25.23;42.42;93555.19;4991914;28;7151;-63
2022/12/04 06:49:28;;;;;;;;;;;;;;;25.23;42.21;93563.44;4979413;28;7074;-62
2022/12/04 06:51:59;;;;;;;;;;;;;;;25.22;42.29;93550.97;4977019;28;9332;-62
2022/12/04 06:54:29;;;;;;;;;;;;;;;25.22;41.87;93550.97;4973847;28;7278;-62
2022/12/04 06:57:06;;;;;;;;;;;;;;;25.23;41.36;93563.44;5001052;28;9294;-62
2022/12/04 06:59:33;;;;;;;;;;;;;;;25.23;41.81;93563.44;4981607;28;9080;-63
2022/12/04 07:02:09;;;;;;;;;;;;;;;25.22;42.00;93553.72;5001272;28;7036;-62
2022/12/04 07:04:39;;;;;;;;;;;;;;;25.20;41.88;93545.25;4983450;28;9263;-64
2022/12/04 07:07:08;;;;;;;;;;;;;;;25.21;41.72;93554.97;4986046;28;7030;-62
2022/12/04 07:09:37;;;;;;;;;;;;;;;25.21;41.63;93555.72;4982920;28;7161;-63
2022/12/04 07:12:05;;;;;;;;;;;;;;;25.22;41.79;93550.97;4981222;28;7360;-63
2022/12/04 07:14:41;;;;;;;;;;;;;;;25.22;41.51;93550.97;4993343;28;7726;-62
2022/12/04 07:17:17;;;;;;;;;;;;;;;25.20;42.22;93554.25;4987069;28;7595;-62
2022/12/04 07:19:50;;;;;;;;;;;;;;;25.22;41.59;93559.22;4991832;28;7095;-62
2022/12/04 07:22:17;;;;;;;;;;;;;;;25.21;41.78;93552.97;4984593;28;9011;-63
2022/12/04 07:25:04;;;;;;;;;;;;;;;25.28;40.86;93560.59;4982240;28;7014;-62
2022/12/04 07:27:39;;;;;;;;;;;;;;;25.28;40.97;93570.84;5001736;28;7080;-61
2022/12/04 07:30:10;;;;;;;;;;;;;;;25.27;41.19;93574.91;4988873;28;7109;-62
2022/12/04 07:32:36;;;;;;;;;;;;;;;25.27;40.48;93581.13;4983742;28;7190;-64
2022/12/04 07:35:11;;;;;;;;;;;;;;;25.26;40.28;93576.16;4988773;28;7109;-62
2022/12/04 07:37:39;;;;;;;;;;;;;;;25.24;40.44;93575.94;4999503;28;7145;-63
2022/12/04 07:40:09;;;;;;;;;;;;;;;25.24;40.66;93576.69;4986975;28;7136;-62
2022/12/04 07:42:44;;;;;;;;;;;;;;;25.22;40.48;93565.47;4985250;28;7304;-63
2022/12/04 07:45:10;;;;;;;;;;;;;;;25.22;41.00;93565.47;4985613;28;7239;-63
2022/12/04 07:47:38;;;;;;;;;;;;;;;25.19;41.28;93576.78;4979592;28;9065;-63
2022/12/04 07:50:05;;;;;;;;;;;;;;;25.18;41.74;93586.31;4982234;28;7211;-62
2022/12/04 07:52:38;;;;;;;;;;;;;;;25.20;41.84;93581.03;4988687;28;8690;-63
2022/12/04 07:55:08;;;;;;;;;;;;;;;25.21;41.81;93572.22;4983267;28;7256;-63
2022/12/04 07:57:33;;;;;;;;;;;;;;;25.23;41.55;93569.69;4983118;28;8504;-63
2022/12/04 08:00:02;;;;;;;;;;;;;;;25.28;41.62;93568.09;4988540;28;6999;-63
2022/12/04 08:02:38;;;;;;;;;;;;;;;25.31;41.01;93567.06;4983859;28;7227;-62
2022/12/04 08:05:08;;;;;;;;;;;;;;;25.31;41.46;93570.56;4980343;28;7273;-63
2022/12/04 08:07:33;;;;;;;;;;;;;;;25.32;41.21;93576.78;4996600;28;7038;-63
2022/12/04 08:10:06;;;;;;;;;;;;;;;25.34;41.83;93577.00;4987623;28;8668;-62
2022/12/04 08:12:34;;;;;;;;;;;;;;;25.35;41.88;93579.25;4979204;28;9053;-63
2022/12/04 08:15:00;;;;;;;;;;;;;;;25.36;41.48;93583.47;4986667;28;8613;-63
2022/12/04 08:17:33;;;;;;;;;;;;;;;25.37;42.36;93584.22;4998617;28;7220;-63
2022/12/04 08:20:01;;;;;;;;;;;;;;;25.38;42.54;93578.16;4990999;28;7276;-62
2022/12/04 08:22:27;;;;;;;;;;;;;;;25.41;42.02;93582.63;4989669;28;7474;-62
2022/12/04 08:24:55;;;;;;;;;;;;;;;25.44;42.50;93583.63;4985595;28;7031;-62
2022/12/04 08:27:23;;;;;;;;;;;;;;;25.43;42.19;93604.16;4987209;28;9373;-62
2022/12/04 08:29:51;;;;;;;;;;;;;;;25.45;42.71;93601.59;4983145;28;7293;-62
2022/12/04 08:32:20;;;;;;;;;;;;;;;25.43;42.55;93595.88;4985551;28;7173;-60
2022/12/04 08:34:50;;;;;;;;;;;;;;;25.46;42.78;93583.06;4978043;28;7274;-62
2022/12/04 08:37:19;;;;;;;;;;;;;;;25.43;42.15;93588.38;4982484;28;7196;-62
2022/12/04 08:39:47;;;;;;;;;;;;;;;25.45;42.94;93585.09;4979899;28;9186;-62
2022/12/04 08:42:20;;;;;;;;;;;;;;;25.48;41.96;93584.03;4982146;28;7400;-62
2022/12/04 08:44:54;;;;;;;;;;;;;;;25.47;42.33;93588.03;4983823;28;7237;-62
2022/12/04 08:47:31;;;;;;;;;;;;;;;25.50;41.71;93586.25;4987938;28;8757;-60
2022/12/04 08:49:57;;;;;;;;;;;;;;;25.49;42.02;93579.28;4986349;28;9334;-62
2022/12/04 08:52:23;;;;;;;;;;;;;;;25.42;42.13;93578.63;4982161;28;7029;-62
2022/12/04 08:54:51;;;;;;;;;;;;;;;25.38;42.31;93591.22;4983638;28;7006;-61
2022/12/04 08:58:04;;;;;;;;;;;;;;;25.35;42.45;93598.50;4977581;28;7851;-63
2022/12/04 09:01:09;;;;;;;;;;;;;;;25.38;42.90;93602.22;4949554;28;7181;-63
2022/12/04 09:03:39;;;;;;;;;;;;;;;25.39;42.43;93603.69;4872984;29;7311;-62
2022/12/04 09:06:06;;;;;;;;;;;;;;;25.37;42.67;93597.97;4870843;29;8940;-61
2022/12/04 09:08:35;;;;;;;;;;;;;;;25.41;42.93;93598.41;4868675;29;7627;-63
2022/12/04 09:11:12;;;;;;;;;;;;;;;25.43;42.83;93612.41;4871505;29;7294;-62
2022/12/04 09:13:40;;;;;;;;;;;;;;;25.47;42.96;93615.56;4851231;29;9445;-61
2022/12/04 09:16:11;;;;;;;;;;;;;;;25.47;42.65;93615.56;4874154;29;8425;-63
2022/12/04 09:18:38;;;;;;;;;;;;;;;25.48;42.53;93608.06;4858725;29;9129;-62
2022/12/04 09:21:08;;;;;;;;;;;;;;;25.45;43.14;93607.09;4871219;29;7276;-61
2022/12/04 09:23:46;;;;;;;;;;;;;;;25.47;42.95;93601.81;4872877;29;7396;-62
2022/12/04 09:26:27;;;;;;;;;;;;;;;25.51;42.98;93607.78;4868755;29;7849;-62
2022/12/04 09:28:54;;;;;;;;;;;;;;;25.58;43.59;93615.38;4871873;29;7232;-62
2022/12/04 09:31:22;;;;;;;;;;;;;;;25.63;43.90;93614.53;4874840;29;7240;-63
2022/12/04 09:33:58;;;;;;;;;;;;;;;25.66;43.43;93610.75;4859618;29;7315;-63
2022/12/04 09:36:24;;;;;;;;;;;;;;;25.66;42.88;93610.00;4879850;28;7315;-63
2022/12/04 09:38:53;;;;;;;;;;;;;;;25.65;42.98;93614.75;4982860;28;10099;-64
2022/12/04 09:41:57;;;;;;;;;;;;;;;25.68;42.18;93613.69;4996373;28;7044;-62
2022/12/04 09:44:35;;;;;;;;;;;;;;;25.67;41.76;93616.97;4981959;28;7315;-60
2022/12/04 09:47:08;;;;;;;;;;;;;;;25.65;41.41;93612.00;4989934;28;9351;-61
2022/12/04 09:49:42;;;;;;;;;;;;;;;25.68;42.13;93608.19;4981984;28;7286;-61
2022/12/04 09:52:21;;;;;;;;;;;;;;;25.70;42.77;93616.66;4982494;28;9160;-62
2022/12/04 09:54:51;;;;;;;;;;;;;;;25.73;42.35;93615.59;4981526;28;7113;-61
2022/12/04 09:57:33;;;;;;;;;;;;;;;25.74;43.10;93611.56;4984020;28;7549;-61
2022/12/04 10:00:03;;;;;;;;;;;;;;;25.74;42.47;93600.56;4988792;28;8909;-62
2022/12/04 10:02:57;;;;;;;;;;;;;;;25.76;41.32;93602.78;4986323;28;7202;-61
2022/12/04 10:05:42;;;;;;;;;;;;;;;25.74;42.14;93599.81;4980006;28;7049;-62
2022/12/04 10:08:15;;;;;;;;;;;;;;;25.75;41.54;93602.03;4983341;28;8331;-61
2022/12/04 10:10:57;;;;;;;;;;;;;;;25.73;41.52;93598.34;4982584;28;9692;-61
2022/12/04 10:13:29;;;;;;;;;;;;;;;25.75;42.01;93604.78;4981204;28;7065;-62
2022/12/04 10:16:16;;;;;;;;;;;;;;;25.76;42.21;93600.00;4975548;28;7076;-60
2022/12/04 10:18:47;;;;;;;;;;;;;;;25.74;42.81;93595.03;4982200;28;9279;-63
2022/12/04 10:21:16;;;;;;;;;;;;;;;25.75;42.99;93593.75;4983315;28;7267;-61
2022/12/04 10:23:53;;;;;;;;;;;;;;;25.82;41.49;93584.88;4984437;28;7097;-61
2022/12/04 10:26:27;;;;;;;;;;;;;;;25.85;41.40;93583.81;4993667;28;9099;-61
2022/12/04 10:29:05;;;;;;;;;;;;;;;25.84;42.12;93584.31;4986464;28;7843;-61
2022/12/04 10:31:36;;;;;;;;;;;;;;;25.83;41.92;93580.09;4981190;28;7276;-61
2022/12/04 10:34:13;;;;;;;;;;;;;;;25.82;41.54;93565.56;4984363;28;7173;-61
2022/12/04 10:36:45;;;;;;;;;;;;;;;25.84;42.06;93567.78;4978360;28;7049;-61
2022/12/04 10:39:20;;;;;;;;;;;;;;;25.84;41.99;93567.78;4986570;28;7266;-61
2022/12/04 10:42:02;;;;;;;;;;;;;;;25.84;41.79;93565.78;4982365;28;7135;-61
2022/12/04 10:44:30;;;;;;;;;;;;;;;25.86;41.91;93557.72;4983916;28;7417;-60
2022/12/04 10:47:02;;;;;;;;;;;;;;;25.84;42.00;93565.03;4976851;28;6936;-61
2022/12/04 10:49:33;;;;;;;;;;;;;;;25.81;41.18;93561.34;4981463;28;9590;-61
2022/12/04 10:52:04;;;;;;;;;;;;;;;25.76;41.47;93547.69;4992981;28;7557;-61
2022/12/04 10:54:35;;;;;;;;;;;;;;;25.71;41.47;93532.03;4991228;28;7240;-61
2022/12/04 10:57:14;;;;;;;;;;;;;;;25.63;41.47;93529.16;5000808;28;7675;-61
2022/12/04 11:00:00;;;;;;;;;;;;;;;25.58;41.60;93527.25;4986576;28;8010;-61
2022/12/04 11:02:37;;;;;;;;;;;;;;;25.51;42.40;93522.41;4985181;28;8854;-60
2022/12/04 11:05:22;;;;;;;;;;;;;;;25.47;41.88;93535.72;4991553;28;7474;-61
2022/12/04 11:07:53;;;;;;;;;;;;;;;25.46;43.03;93542.53;4976786;28;7286;-61
2022/12/04 11:10:44;;;;;;;;;;;;;;;25.43;42.14;93538.81;4982143;28;7041;-61
2022/12/04 11:13:11;;;;;;;;;;;;;;;25.42;42.57;93542.84;4995726;28;7123;-62
2022/12/04 11:16:05;;;;;;;;;;;;;;;25.43;43.21;93549.81;4980454;28;7031;-62
2022/12/04 11:18:59;;;;;;;;;;;;;;;25.45;43.36;93543.06;4986309;28;7071;-62
2022/12/04 11:21:31;;;;;;;;;;;;;;;25.41;43.00;93541.34;4989863;28;9561;-61
2022/12/04 11:24:01;;;;;;;;;;;;;;;25.44;43.44;93542.31;4987309;28;9411;-61
2022/12/04 11:26:55;;;;;;;;;;;;;;;25.44;43.10;93545.06;4991660;28;7471;-61
2022/12/04 11:29:32;;;;;;;;;;;;;;;25.44;43.25;93539.56;4948885;29;9340;-62
2022/12/04 11:32:37;;;;;;;;;;;;;;;25.46;43.65;93544.53;4931717;29;7292;-62
2022/12/04 11:35:20;;;;;;;;;;;;;;;25.45;44.04;93549.28;4930389;29;7229;-61
2022/12/04 11:38:02;;;;;;;;;;;;;;;25.45;43.85;93549.28;4910986;29;10488;-61
2022/12/04 11:40:31;;;;;;;;;;;;;;;25.42;44.41;93553.84;4938836;29;7812;-61
2022/12/04 11:43:32;;;;;;;;;;;;;;;25.44;44.36;93553.34;4924101;29;7014;-62
2022/12/04 11:46:00;;;;;;;;;;;;;;;25.43;44.54;93549.09;4870190;29;8368;-62
2022/12/04 11:48:29;;;;;;;;;;;;;;;25.45;43.65;93552.03;4872070;29;9080;-62
2022/12/04 11:51:23;;;;;;;;;;;;;;;25.49;44.27;93555.22;4876614;29;7201;-62
2022/12/04 11:54:09;;;;;;;;;;;;;;;25.52;43.60;93550.66;4877264;29;7360;-62
2022/12/04 11:57:17;;;;;;;;;;;;;;;25.52;43.54;93553.41;4874321;29;7039;-61
2022/12/04 11:59:48;;;;;;;;;;;;;;;25.52;43.33;93550.66;4865150;29;7953;-61
2022/12/04 12:02:20;;;;;;;;;;;;;;;25.51;43.39;93543.69;4874386;29;7255;-60
2022/12/04 12:05:09;;;;;;;;;;;;;;;25.50;43.71;93548.44;4875000;29;7781;-61
2022/12/04 12:08:10;;;;;;;;;;;;;;;25.52;43.78;93543.16;4903985;29;7017;-61
2022/12/04 12:10:58;;;;;;;;;;;;;;;25.61;43.79;93539.97;4923225;28;7529;-62
2022/12/04 12:13:38;;;;;;;;;;;;;;;25.66;44.03;93533.63;4914892;28;8766;-63
2022/12/04 12:16:45;;;;;;;;;;;;;;;25.71;43.48;93524.50;4922679;29;9369;-61
2022/12/04 12:19:38;;;;;;;;;;;;;;;25.75;43.56;93524.19;4877329;29;9080;-62
2022/12/04 12:22:39;;;;;;;;;;;;;;;25.76;42.83;93523.63;4923004;28;7380;-64
2022/12/04 12:25:18;;;;;;;;;;;;;;;25.67;43.03;93515.81;4925330;28;8676;-61
2022/12/04 12:28:12;;;;;;;;;;;;;;;25.85;42.82;93519.69;4931330;28;8936;-62
2022/12/04 12:31:26;;;;;;;;;;;;;;;26.03;42.43;93505.75;4929055;28;9761;-63
2022/12/04 12:34:21;;;;;;;;;;;;;;;26.06;42.89;93504.69;4892721;29;9750;-63
2022/12/04 12:36:53;;;;;;;;;;;;;;;26.06;42.55;93498.44;4881102;29;9744;-63
2022/12/04 12:39:25;;;;;;;;;;;;;;;26.04;42.19;93498.97;4879375;29;7287;-62
2022/12/04 12:41:55;;;;;;;;;;;;;;;26.04;41.91;93487.22;4878433;29;7380;-63
2022/12/04 12:45:15;;;;;;;;;;;;;;;26.04;41.75;93489.97;4880520;29;7133;-63
2022/12/04 12:47:46;;;;;;;;;;;;;;;26.03;42.13;93494.72;4815611;29;7475;-63
2022/12/04 12:50:21;;;;;;;;;;;;;;;26.01;41.32;93496.56;4838960;29;8694;-62
2022/12/04 12:53:10;;;;;;;;;;;;;;;25.98;41.92;93497.63;4841428;29;7218;-63
2022/12/04 12:55:45;;;;;;;;;;;;;;;25.98;42.16;93486.59;4827667;29;7561;-62
2022/12/04 12:58:41;;;;;;;;;;;;;;;25.96;41.65;93492.66;4823311;29;8782;-63
2022/12/04 13:01:42;;;;;;;;;;;;;;;25.95;41.57;93488.41;4816798;29;9750;-62
2022/12/04 13:04:35;;;;;;;;;;;;;;;25.93;41.73;93498.47;4827700;29;9054;-63
2022/12/04 13:07:31;;;;;;;;;;;;;;;25.90;42.09;93494.78;4833925;29;8790;-62
2022/12/04 13:10:12;;;;;;;;;;;;;;;25.90;42.17;93505.06;4867447;29;7609;-63
2022/12/04 13:12:50;;;;;;;;;;;;;;;25.89;42.03;93498.81;4882847;29;9509;-63
2022/12/04 13:15:23;;;;;;;;;;;;;;;25.86;41.87;93507.41;4890573;29;9437;-63
2022/12/04 13:17:57;;;;;;;;;;;;;;;25.77;41.85;93505.84;4893063;29;7272;-63
2022/12/04 13:20:45;;;;;;;;;;;;;;;25.76;43.04;93501.59;4890156;29;9375;-60
2022/12/04 13:23:20;;;;;;;;;;;;;;;25.80;42.90;93512.28;4957982;28;7434;-62
2022/12/04 13:26:20;;;;;;;;;;;;;;;25.72;42.23;93506.69;4981791;28;6999;-59
2022/12/04 13:29:10;;;;;;;;;;;;;;;25.65;42.21;93509.34;4980545;28;7365;-60
2022/12/04 13:32:03;;;;;;;;;;;;;;;25.61;43.13;93508.94;4985241;28;8911;-60
2022/12/04 13:34:55;;;;;;;;;;;;;;;25.60;42.46;93510.94;4975960;28;7257;-61
2022/12/04 13:37:40;;;;;;;;;;;;;;;25.56;42.24;93513.28;4998927;28;7273;-62
2022/12/04 13:40:29;;;;;;;;;;;;;;;25.56;42.49;93510.53;4992918;28;7275;-61
2022/12/04 13:43:14;;;;;;;;;;;;;;;25.51;42.49;93511.41;4980960;28;7485;-64
2022/12/04 13:45:46;;;;;;;;;;;;;;;25.51;42.84;93521.66;4989042;28;6917;-64
2022/12/04 13:48:28;;;;;;;;;;;;;;;25.47;42.37;93510.25;4991534;28;7031;-63
2022/12/04 13:51:32;;;;;;;;;;;;;;;25.43;42.55;93510.53;4976027;28;10276;-63
2022/12/04 13:54:09;;;;;;;;;;;;;;;25.42;42.78;93503.56;4990455;28;7359;-62
2022/12/04 13:56:44;;;;;;;;;;;;;;;25.39;43.10;93502.59;4984685;28;7272;-62
2022/12/04 13:59:33;;;;;;;;;;;;;;;25.43;42.68;93499.53;4992426;28;7279;-62
2022/12/04 14:02:03;;;;;;;;;;;;;;;25.41;42.90;93500.03;4976117;28;6988;-62
2022/12/04 14:05:21;;;;;;;;;;;;;;;25.42;43.15;93503.56;4981805;28;7601;-62
2022/12/04 14:08:21;;;;;;;;;;;;;;;25.41;42.65;93497.28;4935017;28;7090;-62
2022/12/04 14:11:13;;;;;;;;;;;;;;;25.42;42.81;93501.53;4951135;28;7268;-63
2022/12/04 14:13:51;;;;;;;;;;;;;;;25.40;42.59;93490.28;4932428;29;6970;-63